Jenks, Oklahoma
Current Conditions -  °F | °C
As of 1:53 PM on Saturday 20 Dec 2014 (Local Time) from KRVS Reporting Station
Overcast Overcast  
Wind Chill: 41°   Ceiling: 2400
Heat Index: 45°   Visibility: 10mi
Dew Point: 35°   Wind: 8mph
Humidity: 68%   Direction: 180°S
Pressure: 30.2"   Gusts: NA
Location:  36.02°N, 95.97°W
Report Text: KRVS 201953Z 18007KT 10SM OVC024 07/02 A3020 RMK AO2 SLP233 T00720017
Loading
Personal Weather Stations






























Interactive Weather Map New forecast layout! Learn more

10-Day Weather Forecast

Advertisements
Track Severe Weather on mobile